sensor_id;sensor_type;location;lat;lon;timestamp;P1;durP1;ratioP1;P2;durP2;ratioP2
66487;SDS011;53304;54.550;18.526;2023-04-21T00:00:52;8.02;;;3.20;;
66487;SDS011;53304;54.550;18.526;2023-04-21T00:03:23;7.75;;;2.97;;
66487;SDS011;53304;54.550;18.526;2023-04-21T00:05:51;6.75;;;3.10;;
66487;SDS011;53304;54.550;18.526;2023-04-21T00:08:25;7.25;;;3.38;;
66487;SDS011;53304;54.550;18.526;2023-04-21T00:10:53;7.28;;;3.08;;
66487;SDS011;53304;54.550;18.526;2023-04-21T00:13:20;7.78;;;3.35;;
66487;SDS011;53304;54.550;18.526;2023-04-21T00:15:46;7.90;;;3.20;;
66487;SDS011;53304;54.550;18.526;2023-04-21T00:18:14;11.20;;;2.97;;
66487;SDS011;53304;54.550;18.526;2023-04-21T00:20:42;6.22;;;3.25;;
66487;SDS011;53304;54.550;18.526;2023-04-21T00:23:09;7.80;;;3.17;;
66487;SDS011;53304;54.550;18.526;2023-04-21T00:25:35;7.13;;;2.97;;
66487;SDS011;53304;54.550;18.526;2023-04-21T00:28:03;5.50;;;2.97;;
66487;SDS011;53304;54.550;18.526;2023-04-21T00:30:29;6.35;;;2.92;;
66487;SDS011;53304;54.550;18.526;2023-04-21T00:32:56;7.18;;;2.92;;
66487;SDS011;53304;54.550;18.526;2023-04-21T00:35:22;8.65;;;2.90;;
66487;SDS011;53304;54.550;18.526;2023-04-21T00:37:47;6.60;;;3.08;;
66487;SDS011;53304;54.550;18.526;2023-04-21T00:40:15;5.78;;;3.28;;
66487;SDS011;53304;54.550;18.526;2023-04-21T00:42:40;6.57;;;3.25;;
66487;SDS011;53304;54.550;18.526;2023-04-21T00:45:08;5.68;;;3.35;;
66487;SDS011;53304;54.550;18.526;2023-04-21T00:47:34;9.95;;;3.83;;
66487;SDS011;53304;54.550;18.526;2023-04-21T00:50:02;6.55;;;3.00;;
66487;SDS011;53304;54.550;18.526;2023-04-21T00:52:28;6.90;;;3.17;;
66487;SDS011;53304;54.550;18.526;2023-04-21T00:54:54;6.35;;;3.05;;
66487;SDS011;53304;54.550;18.526;2023-04-21T00:57:20;7.43;;;3.40;;
66487;SDS011;53304;54.550;18.526;2023-04-21T00:59:45;7.65;;;3.30;;
66487;SDS011;53304;54.550;18.526;2023-04-21T01:02:21;7.07;;;3.10;;
66487;SDS011;53304;54.550;18.526;2023-04-21T01:04:46;6.85;;;3.28;;
66487;SDS011;53304;54.550;18.526;2023-04-21T01:07:12;7.28;;;3.47;;
66487;SDS011;53304;54.550;18.526;2023-04-21T01:09:38;6.80;;;3.42;;
66487;SDS011;53304;54.550;18.526;2023-04-21T01:12:04;7.28;;;3.45;;
66487;SDS011;53304;54.550;18.526;2023-04-21T01:14:31;7.70;;;3.70;;
66487;SDS011;53304;54.550;18.526;2023-04-21T01:16:56;8.07;;;3.55;;
66487;SDS011;53304;54.550;18.526;2023-04-21T01:19:25;7.45;;;3.40;;
66487;SDS011;53304;54.550;18.526;2023-04-21T01:21:53;5.90;;;3.47;;
66487;SDS011;53304;54.550;18.526;2023-04-21T01:24:21;6.53;;;3.47;;
66487;SDS011;53304;54.550;18.526;2023-04-21T01:26:48;7.45;;;3.28;;
66487;SDS011;53304;54.550;18.526;2023-04-21T01:29:16;7.60;;;3.70;;
66487;SDS011;53304;54.550;18.526;2023-04-21T01:31:42;7.60;;;3.63;;
66487;SDS011;53304;54.550;18.526;2023-04-21T01:34:12;6.47;;;3.25;;
66487;SDS011;53304;54.550;18.526;2023-04-21T01:36:40;8.50;;;3.35;;
66487;SDS011;53304;54.550;18.526;2023-04-21T01:39:08;5.57;;;3.17;;
66487;SDS011;53304;54.550;18.526;2023-04-21T01:41:35;6.95;;;3.25;;
66487;SDS011;53304;54.550;18.526;2023-04-21T01:44:01;6.35;;;3.30;;
66487;SDS011;53304;54.550;18.526;2023-04-21T01:46:29;7.05;;;3.47;;
66487;SDS011;53304;54.550;18.526;2023-04-21T01:48:59;7.85;;;3.28;;
66487;SDS011;53304;54.550;18.526;2023-04-21T01:51:24;8.02;;;3.38;;
66487;SDS011;53304;54.550;18.526;2023-04-21T01:53:51;7.93;;;3.33;;
66487;SDS011;53304;54.550;18.526;2023-04-21T01:56:19;7.95;;;3.35;;
66487;SDS011;53304;54.550;18.526;2023-04-21T01:58:47;7.63;;;3.47;;
66487;SDS011;53304;54.550;18.526;2023-04-21T02:01:15;7.55;;;3.60;;
66487;SDS011;53304;54.550;18.526;2023-04-21T02:03:43;7.25;;;3.63;;
66487;SDS011;53304;54.550;18.526;2023-04-21T02:06:10;10.60;;;3.40;;
66487;SDS011;53304;54.550;18.526;2023-04-21T02:08:38;8.75;;;3.35;;
66487;SDS011;53304;54.550;18.526;2023-04-21T02:11:05;7.88;;;3.72;;
66487;SDS011;53304;54.550;18.526;2023-04-21T02:13:33;8.07;;;3.63;;
66487;SDS011;53304;54.550;18.526;2023-04-21T02:16:01;8.02;;;3.88;;
66487;SDS011;53304;54.550;18.526;2023-04-21T02:18:26;7.85;;;3.58;;
66487;SDS011;53304;54.550;18.526;2023-04-21T02:20:53;7.43;;;3.65;;
66487;SDS011;53304;54.550;18.526;2023-04-21T02:23:20;7.30;;;3.50;;
66487;SDS011;53304;54.550;18.526;2023-04-21T02:25:45;7.38;;;3.90;;
66487;SDS011;53304;54.550;18.526;2023-04-21T02:28:10;7.35;;;3.40;;
66487;SDS011;53304;54.550;18.526;2023-04-21T02:30:36;6.97;;;3.38;;
66487;SDS011;53304;54.550;18.526;2023-04-21T02:33:06;8.50;;;3.53;;
66487;SDS011;53304;54.550;18.526;2023-04-21T02:35:34;7.80;;;3.30;;
66487;SDS011;53304;54.550;18.526;2023-04-21T02:37:59;7.85;;;3.40;;
66487;SDS011;53304;54.550;18.526;2023-04-21T02:40:31;7.78;;;3.25;;
66487;SDS011;53304;54.550;18.526;2023-04-21T02:42:57;7.47;;;3.92;;
66487;SDS011;53304;54.550;18.526;2023-04-21T02:45:27;7.20;;;3.55;;
66487;SDS011;53304;54.550;18.526;2023-04-21T02:47:53;6.55;;;3.50;;
66487;SDS011;53304;54.550;18.526;2023-04-21T02:50:18;7.47;;;3.60;;
66487;SDS011;53304;54.550;18.526;2023-04-21T02:52:48;7.40;;;3.60;;
66487;SDS011;53304;54.550;18.526;2023-04-21T02:55:16;7.00;;;3.60;;
66487;SDS011;53304;54.550;18.526;2023-04-21T02:57:44;6.97;;;3.58;;
66487;SDS011;53304;54.550;18.526;2023-04-21T03:00:12;7.50;;;3.70;;
66487;SDS011;53304;54.550;18.526;2023-04-21T03:02:38;6.95;;;3.67;;
66487;SDS011;53304;54.550;18.526;2023-04-21T03:05:03;7.38;;;3.53;;
66487;SDS011;53304;54.550;18.526;2023-04-21T03:07:30;8.57;;;3.80;;
66487;SDS011;53304;54.550;18.526;2023-04-21T03:10:00;6.85;;;3.25;;
66487;SDS011;53304;54.550;18.526;2023-04-21T03:12:26;7.25;;;3.60;;
66487;SDS011;53304;54.550;18.526;2023-04-21T03:14:51;7.53;;;3.67;;
66487;SDS011;53304;54.550;18.526;2023-04-21T03:17:17;8.85;;;3.58;;
66487;SDS011;53304;54.550;18.526;2023-04-21T03:19:42;6.00;;;3.42;;
66487;SDS011;53304;54.550;18.526;2023-04-21T03:22:10;9.52;;;3.55;;
66487;SDS011;53304;54.550;18.526;2023-04-21T03:24:37;9.25;;;3.70;;
66487;SDS011;53304;54.550;18.526;2023-04-21T03:27:05;6.20;;;3.50;;
66487;SDS011;53304;54.550;18.526;2023-04-21T03:29:30;6.60;;;3.53;;
66487;SDS011;53304;54.550;18.526;2023-04-21T03:31:56;6.70;;;3.58;;
66487;SDS011;53304;54.550;18.526;2023-04-21T03:34:21;6.03;;;3.35;;
66487;SDS011;53304;54.550;18.526;2023-04-21T03:36:49;8.13;;;3.70;;
66487;SDS011;53304;54.550;18.526;2023-04-21T03:39:17;8.00;;;3.95;;
66487;SDS011;53304;54.550;18.526;2023-04-21T03:41:42;10.13;;;3.80;;
66487;SDS011;53304;54.550;18.526;2023-04-21T03:44:12;7.05;;;3.60;;
66487;SDS011;53304;54.550;18.526;2023-04-21T03:46:40;5.78;;;3.30;;
66487;SDS011;53304;54.550;18.526;2023-04-21T03:49:10;6.70;;;3.58;;
66487;SDS011;53304;54.550;18.526;2023-04-21T03:51:35;6.10;;;3.53;;
66487;SDS011;53304;54.550;18.526;2023-04-21T03:54:00;9.15;;;3.80;;
66487;SDS011;53304;54.550;18.526;2023-04-21T03:56:28;8.48;;;3.55;;
66487;SDS011;53304;54.550;18.526;2023-04-21T03:58:53;8.00;;;3.47;;
66487;SDS011;53304;54.550;18.526;2023-04-21T04:01:24;7.30;;;3.65;;
66487;SDS011;53304;54.550;18.526;2023-04-21T04:03:51;6.90;;;3.40;;
66487;SDS011;53304;54.550;18.526;2023-04-21T04:06:19;6.18;;;3.63;;
66487;SDS011;53304;54.550;18.526;2023-04-21T04:08:52;7.85;;;3.58;;
66487;SDS011;53304;54.550;18.526;2023-04-21T04:11:18;7.43;;;3.70;;
66487;SDS011;53304;54.550;18.526;2023-04-21T04:13:46;6.93;;;3.55;;
66487;SDS011;53304;54.550;18.526;2023-04-21T04:16:11;6.72;;;3.58;;
66487;SDS011;53304;54.550;18.526;2023-04-21T04:18:40;7.03;;;3.50;;
66487;SDS011;53304;54.550;18.526;2023-04-21T04:21:09;7.53;;;3.47;;
66487;SDS011;53304;54.550;18.526;2023-04-21T04:23:39;6.78;;;3.40;;
66487;SDS011;53304;54.550;18.526;2023-04-21T04:26:04;7.43;;;3.60;;
66487;SDS011;53304;54.550;18.526;2023-04-21T04:28:33;6.82;;;3.22;;
66487;SDS011;53304;54.550;18.526;2023-04-21T04:31:02;7.28;;;3.60;;
66487;SDS011;53304;54.550;18.526;2023-04-21T04:33:27;6.10;;;3.10;;
66487;SDS011;53304;54.550;18.526;2023-04-21T04:35:53;10.20;;;3.40;;
66487;SDS011;53304;54.550;18.526;2023-04-21T04:38:18;7.15;;;3.30;;
66487;SDS011;53304;54.550;18.526;2023-04-21T04:40:56;8.30;;;3.92;;
66487;SDS011;53304;54.550;18.526;2023-04-21T04:43:28;6.88;;;3.42;;
66487;SDS011;53304;54.550;18.526;2023-04-21T04:45:54;7.32;;;3.33;;
66487;SDS011;53304;54.550;18.526;2023-04-21T04:48:19;6.22;;;3.53;;
66487;SDS011;53304;54.550;18.526;2023-04-21T04:50:48;7.55;;;3.40;;
66487;SDS011;53304;54.550;18.526;2023-04-21T04:53:16;9.52;;;3.72;;
66487;SDS011;53304;54.550;18.526;2023-04-21T04:55:43;14.20;;;3.88;;
66487;SDS011;53304;54.550;18.526;2023-04-21T04:58:13;9.82;;;3.60;;
66487;SDS011;53304;54.550;18.526;2023-04-21T05:00:39;7.97;;;3.67;;
66487;SDS011;53304;54.550;18.526;2023-04-21T05:03:07;9.90;;;3.58;;
66487;SDS011;53304;54.550;18.526;2023-04-21T05:05:35;10.38;;;4.00;;
66487;SDS011;53304;54.550;18.526;2023-04-21T05:08:00;7.13;;;3.92;;
66487;SDS011;53304;54.550;18.526;2023-04-21T05:10:26;9.70;;;3.60;;
66487;SDS011;53304;54.550;18.526;2023-04-21T05:12:51;11.40;;;3.67;;
66487;SDS011;53304;54.550;18.526;2023-04-21T05:15:22;11.38;;;3.50;;
66487;SDS011;53304;54.550;18.526;2023-04-21T05:17:47;8.38;;;3.83;;
66487;SDS011;53304;54.550;18.526;2023-04-21T05:20:15;9.45;;;3.80;;
66487;SDS011;53304;54.550;18.526;2023-04-21T05:22:40;9.80;;;3.92;;
66487;SDS011;53304;54.550;18.526;2023-04-21T05:25:09;8.85;;;4.13;;
66487;SDS011;53304;54.550;18.526;2023-04-21T05:27:38;11.65;;;4.03;;
66487;SDS011;53304;54.550;18.526;2023-04-21T05:30:05;8.75;;;3.80;;
66487;SDS011;53304;54.550;18.526;2023-04-21T05:32:36;11.30;;;4.07;;
66487;SDS011;53304;54.550;18.526;2023-04-21T05:35:04;14.80;;;4.80;;
66487;SDS011;53304;54.550;18.526;2023-04-21T05:37:29;11.90;;;3.97;;
66487;SDS011;53304;54.550;18.526;2023-04-21T05:39:57;14.30;;;4.55;;
66487;SDS011;53304;54.550;18.526;2023-04-21T05:42:24;17.33;;;4.45;;
66487;SDS011;53304;54.550;18.526;2023-04-21T05:44:50;11.93;;;4.53;;
66487;SDS011;53304;54.550;18.526;2023-04-21T05:47:18;10.02;;;4.10;;
66487;SDS011;53304;54.550;18.526;2023-04-21T05:49:43;10.85;;;4.22;;
66487;SDS011;53304;54.550;18.526;2023-04-21T05:52:14;9.70;;;4.20;;
66487;SDS011;53304;54.550;18.526;2023-04-21T05:54:39;9.15;;;3.92;;
66487;SDS011;53304;54.550;18.526;2023-04-21T05:57:05;11.25;;;4.07;;
66487;SDS011;53304;54.550;18.526;2023-04-21T05:59:32;9.25;;;4.15;;
66487;SDS011;53304;54.550;18.526;2023-04-21T06:02:03;9.63;;;3.72;;
66487;SDS011;53304;54.550;18.526;2023-04-21T06:04:31;10.15;;;4.30;;
66487;SDS011;53304;54.550;18.526;2023-04-21T06:06:56;9.07;;;4.10;;
66487;SDS011;53304;54.550;18.526;2023-04-21T06:09:24;8.35;;;3.90;;
66487;SDS011;53304;54.550;18.526;2023-04-21T06:11:49;8.68;;;3.75;;
66487;SDS011;53304;54.550;18.526;2023-04-21T06:14:17;10.90;;;3.97;;
66487;SDS011;53304;54.550;18.526;2023-04-21T06:16:43;7.68;;;3.75;;
66487;SDS011;53304;54.550;18.526;2023-04-21T06:19:08;10.30;;;3.67;;
66487;SDS011;53304;54.550;18.526;2023-04-21T06:21:36;7.25;;;4.03;;
66487;SDS011;53304;54.550;18.526;2023-04-21T06:24:04;8.95;;;4.15;;
66487;SDS011;53304;54.550;18.526;2023-04-21T06:26:29;10.00;;;4.60;;
66487;SDS011;53304;54.550;18.526;2023-04-21T06:28:55;11.57;;;5.32;;
66487;SDS011;53304;54.550;18.526;2023-04-21T06:31:20;15.73;;;5.53;;
66487;SDS011;53304;54.550;18.526;2023-04-21T06:33:48;11.00;;;5.18;;
66487;SDS011;53304;54.550;18.526;2023-04-21T06:36:13;11.38;;;4.75;;
66487;SDS011;53304;54.550;18.526;2023-04-21T06:38:41;13.25;;;6.18;;
66487;SDS011;53304;54.550;18.526;2023-04-21T06:41:07;11.85;;;5.25;;
66487;SDS011;53304;54.550;18.526;2023-04-21T06:43:33;9.77;;;4.43;;
66487;SDS011;53304;54.550;18.526;2023-04-21T06:46:01;11.85;;;4.45;;
66487;SDS011;53304;54.550;18.526;2023-04-21T06:48:27;9.18;;;4.82;;
66487;SDS011;53304;54.550;18.526;2023-04-21T06:50:57;10.25;;;4.65;;
66487;SDS011;53304;54.550;18.526;2023-04-21T06:53:23;10.30;;;4.50;;
66487;SDS011;53304;54.550;18.526;2023-04-21T06:55:48;13.80;;;5.38;;
66487;SDS011;53304;54.550;18.526;2023-04-21T06:58:14;11.05;;;4.85;;
66487;SDS011;53304;54.550;18.526;2023-04-21T07:00:42;14.60;;;5.20;;
66487;SDS011;53304;54.550;18.526;2023-04-21T07:03:07;24.83;;;5.85;;
66487;SDS011;53304;54.550;18.526;2023-04-21T07:05:32;18.48;;;5.10;;
66487;SDS011;53304;54.550;18.526;2023-04-21T07:08:00;16.52;;;4.15;;
66487;SDS011;53304;54.550;18.526;2023-04-21T07:10:26;11.23;;;4.40;;
66487;SDS011;53304;54.550;18.526;2023-04-21T07:12:56;15.63;;;4.20;;
66487;SDS011;53304;54.550;18.526;2023-04-21T07:15:21;13.65;;;3.80;;
66487;SDS011;53304;54.550;18.526;2023-04-21T07:17:46;8.38;;;3.38;;
66487;SDS011;53304;54.550;18.526;2023-04-21T07:20:12;8.52;;;3.45;;
66487;SDS011;53304;54.550;18.526;2023-04-21T07:22:37;7.70;;;3.30;;
66487;SDS011;53304;54.550;18.526;2023-04-21T07:25:03;7.95;;;2.75;;
66487;SDS011;53304;54.550;18.526;2023-04-21T07:27:32;10.15;;;3.20;;
66487;SDS011;53304;54.550;18.526;2023-04-21T07:30:01;9.07;;;3.25;;
66487;SDS011;53304;54.550;18.526;2023-04-21T07:32:27;7.97;;;3.20;;
66487;SDS011;53304;54.550;18.526;2023-04-21T07:34:53;6.32;;;2.70;;
66487;SDS011;53304;54.550;18.526;2023-04-21T07:37:18;7.32;;;3.00;;
66487;SDS011;53304;54.550;18.526;2023-04-21T07:39:46;7.10;;;2.63;;
66487;SDS011;53304;54.550;18.526;2023-04-21T07:42:12;9.90;;;3.25;;
66487;SDS011;53304;54.550;18.526;2023-04-21T07:44:42;8.38;;;2.92;;
66487;SDS011;53304;54.550;18.526;2023-04-21T07:47:12;5.65;;;2.83;;
66487;SDS011;53304;54.550;18.526;2023-04-21T07:49:37;6.22;;;2.75;;
66487;SDS011;53304;54.550;18.526;2023-04-21T07:52:03;6.57;;;2.78;;
66487;SDS011;53304;54.550;18.526;2023-04-21T07:54:31;9.07;;;3.03;;
66487;SDS011;53304;54.550;18.526;2023-04-21T07:56:58;5.20;;;2.50;;
66487;SDS011;53304;54.550;18.526;2023-04-21T07:59:27;5.93;;;2.45;;
66487;SDS011;53304;54.550;18.526;2023-04-21T08:01:52;6.18;;;2.88;;
66487;SDS011;53304;54.550;18.526;2023-04-21T08:04:20;8.57;;;2.70;;
66487;SDS011;53304;54.550;18.526;2023-04-21T08:06:45;5.03;;;2.58;;
66487;SDS011;53304;54.550;18.526;2023-04-21T08:09:13;7.00;;;2.30;;
66487;SDS011;53304;54.550;18.526;2023-04-21T08:11:41;9.18;;;2.80;;
66487;SDS011;53304;54.550;18.526;2023-04-21T08:14:09;7.65;;;2.40;;
66487;SDS011;53304;54.550;18.526;2023-04-21T08:16:36;7.70;;;2.60;;
66487;SDS011;53304;54.550;18.526;2023-04-21T08:19:02;6.60;;;2.33;;
66487;SDS011;53304;54.550;18.526;2023-04-21T08:21:28;9.68;;;2.50;;
66487;SDS011;53304;54.550;18.526;2023-04-21T08:23:55;4.75;;;2.10;;
66487;SDS011;53304;54.550;18.526;2023-04-21T08:26:26;6.50;;;2.38;;
66487;SDS011;53304;54.550;18.526;2023-04-21T08:28:54;5.30;;;2.42;;
66487;SDS011;53304;54.550;18.526;2023-04-21T08:31:22;4.90;;;2.30;;
66487;SDS011;53304;54.550;18.526;2023-04-21T08:33:47;5.13;;;2.67;;
66487;SDS011;53304;54.550;18.526;2023-04-21T08:36:13;5.03;;;2.22;;
66487;SDS011;53304;54.550;18.526;2023-04-21T08:38:39;4.93;;;2.28;;
66487;SDS011;53304;54.550;18.526;2023-04-21T08:41:06;5.15;;;2.50;;
66487;SDS011;53304;54.550;18.526;2023-04-21T08:43:31;5.75;;;2.47;;
66487;SDS011;53304;54.550;18.526;2023-04-21T08:46:01;5.03;;;2.40;;
66487;SDS011;53304;54.550;18.526;2023-04-21T08:48:29;4.72;;;2.10;;
66487;SDS011;53304;54.550;18.526;2023-04-21T08:50:58;5.72;;;2.53;;
66487;SDS011;53304;54.550;18.526;2023-04-21T08:53:26;3.53;;;2.10;;
66487;SDS011;53304;54.550;18.526;2023-04-21T08:55:54;5.47;;;2.40;;
66487;SDS011;53304;54.550;18.526;2023-04-21T08:58:22;9.02;;;2.53;;
66487;SDS011;53304;54.550;18.526;2023-04-21T09:00:50;6.63;;;2.53;;
66487;SDS011;53304;54.550;18.526;2023-04-21T09:03:21;5.43;;;2.67;;
66487;SDS011;53304;54.550;18.526;2023-04-21T09:06:00;9.25;;;2.78;;
66487;SDS011;53304;54.550;18.526;2023-04-21T09:08:29;6.03;;;2.42;;
66487;SDS011;53304;54.550;18.526;2023-04-21T09:10:56;6.63;;;2.60;;
66487;SDS011;53304;54.550;18.526;2023-04-21T09:13:28;4.38;;;2.08;;
66487;SDS011;53304;54.550;18.526;2023-04-21T09:15:57;4.68;;;2.20;;
66487;SDS011;53304;54.550;18.526;2023-04-21T09:18:24;6.93;;;2.17;;
66487;SDS011;53304;54.550;18.526;2023-04-21T09:23:40;9.88;;;2.40;;
66487;SDS011;53304;54.550;18.526;2023-04-21T09:26:09;5.30;;;2.30;;
66487;SDS011;53304;54.550;18.526;2023-04-21T09:28:35;7.13;;;2.90;;
66487;SDS011;53304;54.550;18.526;2023-04-21T09:31:00;5.80;;;2.00;;
66487;SDS011;53304;54.550;18.526;2023-04-21T09:33:26;6.82;;;2.70;;
66487;SDS011;53304;54.550;18.526;2023-04-21T09:35:59;6.20;;;2.13;;
66487;SDS011;53304;54.550;18.526;2023-04-21T09:38:30;11.35;;;2.70;;
66487;SDS011;53304;54.550;18.526;2023-04-21T09:41:03;10.73;;;3.00;;
66487;SDS011;53304;54.550;18.526;2023-04-21T09:43:29;5.22;;;2.47;;
66487;SDS011;53304;54.550;18.526;2023-04-21T09:45:56;7.50;;;2.25;;
66487;SDS011;53304;54.550;18.526;2023-04-21T09:48:25;8.52;;;2.80;;
66487;SDS011;53304;54.550;18.526;2023-04-21T09:50:56;5.38;;;2.50;;
66487;SDS011;53304;54.550;18.526;2023-04-21T09:53:22;6.10;;;2.30;;
66487;SDS011;53304;54.550;18.526;2023-04-21T09:55:52;5.38;;;2.30;;
66487;SDS011;53304;54.550;18.526;2023-04-21T09:58:21;6.85;;;2.47;;
66487;SDS011;53304;54.550;18.526;2023-04-21T10:00:48;5.47;;;2.40;;
66487;SDS011;53304;54.550;18.526;2023-04-21T10:03:17;6.65;;;2.17;;
66487;SDS011;53304;54.550;18.526;2023-04-21T10:05:43;6.43;;;2.22;;
66487;SDS011;53304;54.550;18.526;2023-04-21T10:08:11;5.03;;;2.50;;
66487;SDS011;53304;54.550;18.526;2023-04-21T10:10:37;4.78;;;2.10;;
66487;SDS011;53304;54.550;18.526;2023-04-21T10:13:03;5.15;;;2.33;;
66487;SDS011;53304;54.550;18.526;2023-04-21T10:18:15;4.25;;;2.40;;
66487;SDS011;53304;54.550;18.526;2023-04-21T10:20:51;4.63;;;2.20;;
66487;SDS011;53304;54.550;18.526;2023-04-21T10:23:37;6.53;;;2.58;;
66487;SDS011;53304;54.550;18.526;2023-04-21T10:26:11;7.20;;;2.20;;
66487;SDS011;53304;54.550;18.526;2023-04-21T10:28:51;7.78;;;2.15;;
66487;SDS011;53304;54.550;18.526;2023-04-21T10:31:24;4.40;;;1.90;;
66487;SDS011;53304;54.550;18.526;2023-04-21T10:34:11;5.25;;;2.30;;
66487;SDS011;53304;54.550;18.526;2023-04-21T10:39:27;4.28;;;2.03;;
66487;SDS011;53304;54.550;18.526;2023-04-21T10:44:40;4.88;;;2.00;;
66487;SDS011;53304;54.550;18.526;2023-04-21T10:47:06;3.33;;;2.00;;
66487;SDS011;53304;54.550;18.526;2023-04-21T10:49:32;5.63;;;1.73;;
66487;SDS011;53304;54.550;18.526;2023-04-21T10:52:02;8.05;;;1.95;;
66487;SDS011;53304;54.550;18.526;2023-04-21T10:54:31;6.13;;;1.88;;
66487;SDS011;53304;54.550;18.526;2023-04-21T10:57:11;5.40;;;2.28;;
66487;SDS011;53304;54.550;18.526;2023-04-21T10:59:43;3.65;;;1.70;;
66487;SDS011;53304;54.550;18.526;2023-04-21T11:02:12;5.00;;;1.83;;
66487;SDS011;53304;54.550;18.526;2023-04-21T11:04:39;4.07;;;1.73;;
66487;SDS011;53304;54.550;18.526;2023-04-21T11:07:12;4.38;;;1.75;;
66487;SDS011;53304;54.550;18.526;2023-04-21T11:09:38;4.45;;;1.92;;
66487;SDS011;53304;54.550;18.526;2023-04-21T11:12:14;3.97;;;1.92;;
66487;SDS011;53304;54.550;18.526;2023-04-21T11:14:42;4.65;;;2.00;;
66487;SDS011;53304;54.550;18.526;2023-04-21T11:17:17;4.65;;;1.60;;
66487;SDS011;53304;54.550;18.526;2023-04-21T11:19:48;5.30;;;1.70;;
66487;SDS011;53304;54.550;18.526;2023-04-21T11:22:17;6.03;;;1.70;;
66487;SDS011;53304;54.550;18.526;2023-04-21T11:24:44;3.03;;;1.70;;
66487;SDS011;53304;54.550;18.526;2023-04-21T11:27:12;4.35;;;1.77;;
66487;SDS011;53304;54.550;18.526;2023-04-21T11:29:43;3.05;;;1.58;;
66487;SDS011;53304;54.550;18.526;2023-04-21T11:32:09;5.32;;;2.05;;
66487;SDS011;53304;54.550;18.526;2023-04-21T11:34:35;3.63;;;1.83;;
66487;SDS011;53304;54.550;18.526;2023-04-21T11:37:02;5.00;;;1.90;;
66487;SDS011;53304;54.550;18.526;2023-04-21T11:39:31;4.00;;;1.90;;
66487;SDS011;53304;54.550;18.526;2023-04-21T11:41:56;4.05;;;1.83;;
66487;SDS011;53304;54.550;18.526;2023-04-21T11:44:31;3.15;;;1.70;;
66487;SDS011;53304;54.550;18.526;2023-04-21T11:47:10;2.90;;;1.60;;
66487;SDS011;53304;54.550;18.526;2023-04-21T11:49:45;5.68;;;1.80;;
66487;SDS011;53304;54.550;18.526;2023-04-21T11:52:18;3.70;;;1.75;;
66487;SDS011;53304;54.550;18.526;2023-04-21T11:54:44;8.98;;;1.98;;
66487;SDS011;53304;54.550;18.526;2023-04-21T11:57:10;10.40;;;2.45;;
66487;SDS011;53304;54.550;18.526;2023-04-21T11:59:40;12.20;;;2.30;;
66487;SDS011;53304;54.550;18.526;2023-04-21T12:02:11;60.38;;;20.00;;
66487;SDS011;53304;54.550;18.526;2023-04-21T12:04:37;136.43;;;47.47;;
66487;SDS011;53304;54.550;18.526;2023-04-21T12:07:03;131.35;;;45.85;;
66487;SDS011;53304;54.550;18.526;2023-04-21T12:09:29;194.40;;;71.43;;
66487;SDS011;53304;54.550;18.526;2023-04-21T12:11:57;146.05;;;54.92;;
66487;SDS011;53304;54.550;18.526;2023-04-21T12:14:28;166.10;;;60.57;;
66487;SDS011;53304;54.550;18.526;2023-04-21T12:16:54;178.95;;;61.67;;
66487;SDS011;53304;54.550;18.526;2023-04-21T12:19:21;126.82;;;45.42;;
66487;SDS011;53304;54.550;18.526;2023-04-21T12:21:54;147.88;;;48.72;;
66487;SDS011;53304;54.550;18.526;2023-04-21T12:26:45;134.60;;;43.60;;
66487;SDS011;53304;54.550;18.526;2023-04-21T12:29:16;127.70;;;41.30;;
66487;SDS011;53304;54.550;18.526;2023-04-21T12:31:43;120.40;;;40.63;;
66487;SDS011;53304;54.550;18.526;2023-04-21T12:34:09;122.93;;;40.15;;
66487;SDS011;53304;54.550;18.526;2023-04-21T12:36:37;121.85;;;40.85;;
66487;SDS011;53304;54.550;18.526;2023-04-21T12:39:02;123.97;;;43.10;;
66487;SDS011;53304;54.550;18.526;2023-04-21T12:41:28;107.95;;;36.50;;
66487;SDS011;53304;54.550;18.526;2023-04-21T12:43:56;102.65;;;36.45;;
66487;SDS011;53304;54.550;18.526;2023-04-21T12:46:24;103.15;;;35.67;;
66487;SDS011;53304;54.550;18.526;2023-04-21T12:48:51;95.07;;;33.92;;
66487;SDS011;53304;54.550;18.526;2023-04-21T12:51:17;80.60;;;28.85;;
66487;SDS011;53304;54.550;18.526;2023-04-21T12:53:42;97.00;;;31.45;;
66487;SDS011;53304;54.550;18.526;2023-04-21T12:56:10;83.40;;;28.42;;
66487;SDS011;53304;54.550;18.526;2023-04-21T12:58:36;75.05;;;28.52;;
66487;SDS011;53304;54.550;18.526;2023-04-21T13:01:04;83.38;;;28.48;;
66487;SDS011;53304;54.550;18.526;2023-04-21T13:03:29;78.97;;;26.05;;
66487;SDS011;53304;54.550;18.526;2023-04-21T13:06:00;79.45;;;27.40;;
66487;SDS011;53304;54.550;18.526;2023-04-21T13:08:25;69.47;;;26.23;;
66487;SDS011;53304;54.550;18.526;2023-04-21T13:10:51;77.35;;;25.70;;
66487;SDS011;53304;54.550;18.526;2023-04-21T13:13:21;71.75;;;25.08;;
66487;SDS011;53304;54.550;18.526;2023-04-21T13:15:48;63.38;;;23.42;;
66487;SDS011;53304;54.550;18.526;2023-04-21T13:18:16;63.70;;;22.60;;
66487;SDS011;53304;54.550;18.526;2023-04-21T13:20:41;60.60;;;20.75;;
66487;SDS011;53304;54.550;18.526;2023-04-21T13:23:07;50.30;;;19.40;;
66487;SDS011;53304;54.550;18.526;2023-04-21T13:25:32;51.60;;;20.40;;
66487;SDS011;53304;54.550;18.526;2023-04-21T13:28:05;62.70;;;20.90;;
66487;SDS011;53304;54.550;18.526;2023-04-21T13:30:34;56.67;;;17.97;;
66487;SDS011;53304;54.550;18.526;2023-04-21T13:33:01;45.72;;;17.08;;
66487;SDS011;53304;54.550;18.526;2023-04-21T13:35:26;44.03;;;16.10;;
66487;SDS011;53304;54.550;18.526;2023-04-21T13:37:54;44.80;;;16.75;;
66487;SDS011;53304;54.550;18.526;2023-04-21T13:40:20;46.63;;;17.20;;
66487;SDS011;53304;54.550;18.526;2023-04-21T13:42:45;46.17;;;15.98;;
66487;SDS011;53304;54.550;18.526;2023-04-21T13:45:13;47.28;;;16.35;;
66487;SDS011;53304;54.550;18.526;2023-04-21T13:47:40;39.88;;;14.90;;
66487;SDS011;53304;54.550;18.526;2023-04-21T13:50:06;38.08;;;14.48;;
66487;SDS011;53304;54.550;18.526;2023-04-21T13:52:33;37.92;;;13.55;;
66487;SDS011;53304;54.550;18.526;2023-04-21T13:55:00;34.17;;;13.85;;
66487;SDS011;53304;54.550;18.526;2023-04-21T13:57:30;33.28;;;12.95;;
66487;SDS011;53304;54.550;18.526;2023-04-21T13:59:55;35.70;;;12.90;;
66487;SDS011;53304;54.550;18.526;2023-04-21T14:02:21;36.38;;;12.82;;
66487;SDS011;53304;54.550;18.526;2023-04-21T14:04:49;35.00;;;12.45;;
66487;SDS011;53304;54.550;18.526;2023-04-21T14:07:15;31.05;;;11.18;;
66487;SDS011;53304;54.550;18.526;2023-04-21T14:09:44;29.35;;;10.75;;
66487;SDS011;53304;54.550;18.526;2023-04-21T14:12:14;25.85;;;10.35;;
66487;SDS011;53304;54.550;18.526;2023-04-21T14:14:39;39.95;;;11.30;;
66487;SDS011;53304;54.550;18.526;2023-04-21T14:17:07;27.15;;;10.05;;
66487;SDS011;53304;54.550;18.526;2023-04-21T14:19:35;30.35;;;10.48;;
66487;SDS011;53304;54.550;18.526;2023-04-21T14:22:00;30.40;;;10.52;;
66487;SDS011;53304;54.550;18.526;2023-04-21T14:24:30;28.45;;;9.88;;
66487;SDS011;53304;54.550;18.526;2023-04-21T14:26:56;23.13;;;9.55;;
66487;SDS011;53304;54.550;18.526;2023-04-21T14:29:21;34.60;;;10.02;;
66487;SDS011;53304;54.550;18.526;2023-04-21T14:31:49;27.33;;;9.32;;
66487;SDS011;53304;54.550;18.526;2023-04-21T14:34:17;28.52;;;8.50;;
66487;SDS011;53304;54.550;18.526;2023-04-21T14:36:44;19.98;;;7.78;;
66487;SDS011;53304;54.550;18.526;2023-04-21T14:39:13;20.98;;;7.20;;
66487;SDS011;53304;54.550;18.526;2023-04-21T14:41:39;22.42;;;7.38;;
66487;SDS011;53304;54.550;18.526;2023-04-21T14:44:05;21.88;;;7.32;;